sensor_id;sensor_type;location;lat;lon;timestamp;P1;durP1;ratioP1;P2;durP2;ratioP2
1651;SDS011;823;49.028;8.454;2023-01-04T00:00:24;6.13;;;3.80;;
1651;SDS011;823;49.028;8.454;2023-01-04T00:05:24;10.27;;;4.70;;
1651;SDS011;823;49.028;8.454;2023-01-04T00:10:25;9.60;;;4.63;;
1651;SDS011;823;49.028;8.454;2023-01-04T00:15:25;8.97;;;4.70;;
1651;SDS011;823;49.028;8.454;2023-01-04T00:20:25;6.33;;;3.83;;
1651;SDS011;823;49.028;8.454;2023-01-04T00:25:26;8.70;;;4.33;;
1651;SDS011;823;49.028;8.454;2023-01-04T00:30:26;7.07;;;5.30;;
1651;SDS011;823;49.028;8.454;2023-01-04T00:35:26;6.40;;;3.97;;
1651;SDS011;823;49.028;8.454;2023-01-04T00:40:26;8.55;;;4.82;;
1651;SDS011;823;49.028;8.454;2023-01-04T00:45:27;9.23;;;4.30;;
1651;SDS011;823;49.028;8.454;2023-01-04T00:50:27;12.13;;;4.35;;
1651;SDS011;823;49.028;8.454;2023-01-04T00:55:28;6.55;;;3.60;;
1651;SDS011;823;49.028;8.454;2023-01-04T01:00:29;6.80;;;3.30;;
1651;SDS011;823;49.028;8.454;2023-01-04T01:05:29;14.15;;;3.40;;
1651;SDS011;823;49.028;8.454;2023-01-04T01:10:32;5.80;;;3.63;;
1651;SDS011;823;49.028;8.454;2023-01-04T01:15:33;9.17;;;4.30;;
1651;SDS011;823;49.028;8.454;2023-01-04T01:20:33;7.00;;;3.10;;
1651;SDS011;823;49.028;8.454;2023-01-04T01:25:34;10.47;;;3.57;;
1651;SDS011;823;49.028;8.454;2023-01-04T01:30:37;8.25;;;4.00;;
1651;SDS011;823;49.028;8.454;2023-01-04T01:35:39;5.10;;;3.97;;
1651;SDS011;823;49.028;8.454;2023-01-04T01:40:43;6.15;;;3.58;;
1651;SDS011;823;49.028;8.454;2023-01-04T01:45:44;7.20;;;4.40;;
1651;SDS011;823;49.028;8.454;2023-01-04T01:51:01;7.67;;;4.50;;
1651;SDS011;823;49.028;8.454;2023-01-04T01:56:03;7.77;;;4.20;;
1651;SDS011;823;49.028;8.454;2023-01-04T02:01:06;13.80;;;4.77;;
1651;SDS011;823;49.028;8.454;2023-01-04T02:06:09;5.83;;;3.00;;
1651;SDS011;823;49.028;8.454;2023-01-04T02:11:11;10.03;;;4.93;;
1651;SDS011;823;49.028;8.454;2023-01-04T02:27:57;7.63;;;3.80;;
1651;SDS011;823;49.028;8.454;2023-01-04T02:38:04;12.03;;;6.00;;
1651;SDS011;823;49.028;8.454;2023-01-04T02:43:26;16.27;;;7.70;;
1651;SDS011;823;49.028;8.454;2023-01-04T02:48:51;14.47;;;8.83;;
1651;SDS011;823;49.028;8.454;2023-01-04T02:54:10;19.60;;;9.33;;
1651;SDS011;823;49.028;8.454;2023-01-04T03:10:20;21.97;;;10.33;;
1651;SDS011;823;49.028;8.454;2023-01-04T03:15:23;28.07;;;12.50;;
1651;SDS011;823;49.028;8.454;2023-01-04T03:20:28;27.30;;;11.87;;
1651;SDS011;823;49.028;8.454;2023-01-04T03:25:32;26.93;;;11.80;;
1651;SDS011;823;49.028;8.454;2023-01-04T03:30:58;29.80;;;14.40;;
1651;SDS011;823;49.028;8.454;2023-01-04T03:36:30;29.57;;;12.13;;
1651;SDS011;823;49.028;8.454;2023-01-04T03:47:45;25.90;;;11.23;;
1651;SDS011;823;49.028;8.454;2023-01-04T03:53:10;23.60;;;11.20;;
1651;SDS011;823;49.028;8.454;2023-01-04T03:58:12;27.40;;;13.27;;
1651;SDS011;823;49.028;8.454;2023-01-04T04:03:13;29.63;;;12.53;;
1651;SDS011;823;49.028;8.454;2023-01-04T04:08:14;28.00;;;12.80;;
1651;SDS011;823;49.028;8.454;2023-01-04T04:13:29;27.60;;;12.10;;
1651;SDS011;823;49.028;8.454;2023-01-04T04:18:29;29.40;;;11.98;;
1651;SDS011;823;49.028;8.454;2023-01-04T04:23:29;25.50;;;11.90;;
1651;SDS011;823;49.028;8.454;2023-01-04T04:28:30;28.47;;;12.70;;
1651;SDS011;823;49.028;8.454;2023-01-04T04:33:30;37.55;;;11.98;;
1651;SDS011;823;49.028;8.454;2023-01-04T04:38:30;25.40;;;12.10;;
1651;SDS011;823;49.028;8.454;2023-01-04T04:43:31;22.80;;;9.50;;
1651;SDS011;823;49.028;8.454;2023-01-04T04:48:32;24.53;;;9.63;;
1651;SDS011;823;49.028;8.454;2023-01-04T04:53:32;21.92;;;8.98;;
1651;SDS011;823;49.028;8.454;2023-01-04T04:58:33;20.83;;;8.38;;
1651;SDS011;823;49.028;8.454;2023-01-04T05:03:33;15.53;;;7.70;;
1651;SDS011;823;49.028;8.454;2023-01-04T05:08:34;16.67;;;7.60;;
1651;SDS011;823;49.028;8.454;2023-01-04T05:13:34;18.63;;;8.60;;
1651;SDS011;823;49.028;8.454;2023-01-04T05:18:35;23.57;;;8.40;;
1651;SDS011;823;49.028;8.454;2023-01-04T05:23:35;17.27;;;7.00;;
1651;SDS011;823;49.028;8.454;2023-01-04T05:28:36;25.25;;;7.85;;
1651;SDS011;823;49.028;8.454;2023-01-04T05:33:36;15.80;;;7.63;;
1651;SDS011;823;49.028;8.454;2023-01-04T05:38:36;17.30;;;8.17;;
1651;SDS011;823;49.028;8.454;2023-01-04T05:43:37;13.70;;;7.70;;
1651;SDS011;823;49.028;8.454;2023-01-04T05:48:37;17.27;;;7.53;;
1651;SDS011;823;49.028;8.454;2023-01-04T05:53:37;16.20;;;6.72;;
1651;SDS011;823;49.028;8.454;2023-01-04T05:58:37;17.63;;;6.57;;
1651;SDS011;823;49.028;8.454;2023-01-04T06:03:38;10.23;;;6.57;;
1651;SDS011;823;49.028;8.454;2023-01-04T06:08:39;10.37;;;5.47;;
1651;SDS011;823;49.028;8.454;2023-01-04T06:13:39;12.32;;;5.78;;
1651;SDS011;823;49.028;8.454;2023-01-04T06:18:40;97.53;;;40.00;;
1651;SDS011;823;49.028;8.454;2023-01-04T06:23:40;16.73;;;7.68;;
1651;SDS011;823;49.028;8.454;2023-01-04T06:28:40;10.25;;;4.50;;
1651;SDS011;823;49.028;8.454;2023-01-04T06:33:41;3.20;;;1.20;;
1651;SDS011;823;49.028;8.454;2023-01-04T06:38:41;2.03;;;1.40;;
1651;SDS011;823;49.028;8.454;2023-01-04T06:43:41;1.55;;;0.95;;
1651;SDS011;823;49.028;8.454;2023-01-04T06:48:41;3.67;;;1.27;;
1651;SDS011;823;49.028;8.454;2023-01-04T06:53:42;2.05;;;0.65;;
1651;SDS011;823;49.028;8.454;2023-01-04T06:58:42;1.07;;;0.80;;
1651;SDS011;823;49.028;8.454;2023-01-04T07:03:42;3.00;;;1.08;;
1651;SDS011;823;49.028;8.454;2023-01-04T07:08:43;4.15;;;1.65;;
1651;SDS011;823;49.028;8.454;2023-01-04T07:13:43;4.10;;;1.65;;
1651;SDS011;823;49.028;8.454;2023-01-04T07:18:43;1.45;;;0.90;;
1651;SDS011;823;49.028;8.454;2023-01-04T07:23:43;1.48;;;0.98;;
1651;SDS011;823;49.028;8.454;2023-01-04T07:28:44;2.75;;;1.40;;
1651;SDS011;823;49.028;8.454;2023-01-04T07:34:03;1.30;;;0.97;;
1651;SDS011;823;49.028;8.454;2023-01-04T07:39:03;3.97;;;1.20;;
1651;SDS011;823;49.028;8.454;2023-01-04T07:44:04;4.73;;;0.70;;
1651;SDS011;823;49.028;8.454;2023-01-04T07:49:06;2.60;;;0.80;;
1651;SDS011;823;49.028;8.454;2023-01-04T07:54:12;1.43;;;0.80;;
1651;SDS011;823;49.028;8.454;2023-01-04T07:59:14;1.70;;;1.60;;
1651;SDS011;823;49.028;8.454;2023-01-04T08:04:16;5.50;;;1.70;;
1651;SDS011;823;49.028;8.454;2023-01-04T08:09:16;1.97;;;0.80;;
1651;SDS011;823;49.028;8.454;2023-01-04T08:14:17;1.13;;;0.63;;
1651;SDS011;823;49.028;8.454;2023-01-04T08:19:18;5.03;;;0.70;;
1651;SDS011;823;49.028;8.454;2023-01-04T08:24:20;2.17;;;0.87;;
1651;SDS011;823;49.028;8.454;2023-01-04T08:29:20;1.98;;;0.70;;
1651;SDS011;823;49.028;8.454;2023-01-04T08:34:20;4.47;;;0.70;;
1651;SDS011;823;49.028;8.454;2023-01-04T08:39:21;2.70;;;0.90;;
1651;SDS011;823;49.028;8.454;2023-01-04T08:44:22;5.45;;;0.70;;
1651;SDS011;823;49.028;8.454;2023-01-04T08:49:24;1.90;;;0.70;;
1651;SDS011;823;49.028;8.454;2023-01-04T08:54:24;1.60;;;1.07;;
1651;SDS011;823;49.028;8.454;2023-01-04T08:59:24;3.73;;;0.67;;
1651;SDS011;823;49.028;8.454;2023-01-04T09:04:24;1.47;;;0.70;;
1651;SDS011;823;49.028;8.454;2023-01-04T09:09:25;1.55;;;0.60;;
1651;SDS011;823;49.028;8.454;2023-01-04T09:14:25;0.90;;;0.63;;
1651;SDS011;823;49.028;8.454;2023-01-04T09:19:25;1.10;;;0.70;;
1651;SDS011;823;49.028;8.454;2023-01-04T09:24:26;3.08;;;1.10;;
1651;SDS011;823;49.028;8.454;2023-01-04T09:29:26;1.87;;;0.73;;
1651;SDS011;823;49.028;8.454;2023-01-04T09:34:26;1.23;;;0.50;;
1651;SDS011;823;49.028;8.454;2023-01-04T09:39:27;0.80;;;0.50;;
1651;SDS011;823;49.028;8.454;2023-01-04T09:44:45;3.77;;;0.83;;
1651;SDS011;823;49.028;8.454;2023-01-04T09:50:05;2.33;;;0.70;;
1651;SDS011;823;49.028;8.454;2023-01-04T09:55:15;2.27;;;0.80;;
1651;SDS011;823;49.028;8.454;2023-01-04T10:00:23;3.03;;;1.00;;
1651;SDS011;823;49.028;8.454;2023-01-04T10:05:29;6.20;;;2.03;;
1651;SDS011;823;49.028;8.454;2023-01-04T10:16:00;2.63;;;0.90;;
1651;SDS011;823;49.028;8.454;2023-01-04T10:21:06;2.83;;;1.90;;
1651;SDS011;823;49.028;8.454;2023-01-04T10:26:37;1.67;;;0.77;;
1651;SDS011;823;49.028;8.454;2023-01-04T10:31:47;1.50;;;1.00;;
1651;SDS011;823;49.028;8.454;2023-01-04T10:36:55;2.07;;;0.83;;
1651;SDS011;823;49.028;8.454;2023-01-04T10:41:59;2.47;;;1.30;;
1651;SDS011;823;49.028;8.454;2023-01-04T10:52:54;2.03;;;0.87;;
1651;SDS011;823;49.028;8.454;2023-01-04T10:58:05;6.10;;;0.70;;
1651;SDS011;823;49.028;8.454;2023-01-04T11:03:12;4.93;;;0.87;;
1651;SDS011;823;49.028;8.454;2023-01-04T11:08:19;3.77;;;1.00;;
1651;SDS011;823;49.028;8.454;2023-01-04T11:13:24;4.67;;;0.60;;
1651;SDS011;823;49.028;8.454;2023-01-04T11:18:25;3.03;;;0.77;;
1651;SDS011;823;49.028;8.454;2023-01-04T11:23:25;3.80;;;0.93;;
1651;SDS011;823;49.028;8.454;2023-01-04T11:28:36;2.17;;;0.60;;
1651;SDS011;823;49.028;8.454;2023-01-04T11:33:53;1.80;;;0.90;;
1651;SDS011;823;49.028;8.454;2023-01-04T11:38:58;1.00;;;0.53;;
1651;SDS011;823;49.028;8.454;2023-01-04T11:44:00;1.80;;;0.70;;
1651;SDS011;823;49.028;8.454;2023-01-04T11:49:03;3.37;;;0.97;;
1651;SDS011;823;49.028;8.454;2023-01-04T11:59:16;1.53;;;0.90;;
1651;SDS011;823;49.028;8.454;2023-01-04T12:04:26;2.10;;;0.70;;
1651;SDS011;823;49.028;8.454;2023-01-04T12:09:27;1.30;;;0.70;;
1651;SDS011;823;49.028;8.454;2023-01-04T12:14:30;3.80;;;0.80;;
1651;SDS011;823;49.028;8.454;2023-01-04T12:19:34;0.90;;;0.70;;
1651;SDS011;823;49.028;8.454;2023-01-04T12:24:35;4.30;;;0.87;;
1651;SDS011;823;49.028;8.454;2023-01-04T12:29:55;3.53;;;0.80;;
1651;SDS011;823;49.028;8.454;2023-01-04T12:34:57;1.20;;;0.70;;
1651;SDS011;823;49.028;8.454;2023-01-04T12:39:57;2.20;;;0.70;;
1651;SDS011;823;49.028;8.454;2023-01-04T12:44:57;7.00;;;0.90;;
1651;SDS011;823;49.028;8.454;2023-01-04T12:50:01;3.20;;;1.10;;
1651;SDS011;823;49.028;8.454;2023-01-04T13:10:58;1.70;;;0.70;;
1651;SDS011;823;49.028;8.454;2023-01-04T13:21:38;3.13;;;0.87;;
1651;SDS011;823;49.028;8.454;2023-01-04T13:26:41;1.63;;;0.83;;
1651;SDS011;823;49.028;8.454;2023-01-04T13:31:52;2.60;;;0.90;;
1651;SDS011;823;49.028;8.454;2023-01-04T13:42:20;1.00;;;0.67;;
1651;SDS011;823;49.028;8.454;2023-01-04T13:47:37;1.83;;;0.90;;
1651;SDS011;823;49.028;8.454;2023-01-04T13:52:40;4.20;;;1.00;;
1651;SDS011;823;49.028;8.454;2023-01-04T14:08:15;2.60;;;0.87;;
1651;SDS011;823;49.028;8.454;2023-01-04T14:13:19;1.40;;;0.70;;
1651;SDS011;823;49.028;8.454;2023-01-04T14:18:24;2.00;;;0.80;;
1651;SDS011;823;49.028;8.454;2023-01-04T14:23:32;1.73;;;0.70;;
1651;SDS011;823;49.028;8.454;2023-01-04T14:28:35;6.20;;;0.90;;
1651;SDS011;823;49.028;8.454;2023-01-04T14:33:38;3.80;;;1.20;;
1651;SDS011;823;49.028;8.454;2023-01-04T14:44:06;1.13;;;0.60;;
1651;SDS011;823;49.028;8.454;2023-01-04T14:49:08;1.33;;;0.70;;
1651;SDS011;823;49.028;8.454;2023-01-04T14:54:10;1.13;;;0.70;;
1651;SDS011;823;49.028;8.454;2023-01-04T14:59:11;1.40;;;0.70;;
1651;SDS011;823;49.028;8.454;2023-01-04T15:04:12;14.00;;;0.97;;
1651;SDS011;823;49.028;8.454;2023-01-04T15:09:12;2.20;;;1.27;;
1651;SDS011;823;49.028;8.454;2023-01-04T15:14:12;1.85;;;0.70;;
1651;SDS011;823;49.028;8.454;2023-01-04T15:19:13;2.63;;;0.83;;
1651;SDS011;823;49.028;8.454;2023-01-04T15:24:13;2.17;;;0.93;;
1651;SDS011;823;49.028;8.454;2023-01-04T15:29:13;2.00;;;0.60;;
1651;SDS011;823;49.028;8.454;2023-01-04T15:34:14;1.17;;;0.73;;
1651;SDS011;823;49.028;8.454;2023-01-04T15:39:14;2.88;;;1.00;;
1651;SDS011;823;49.028;8.454;2023-01-04T15:44:14;1.00;;;0.63;;
1651;SDS011;823;49.028;8.454;2023-01-04T15:49:15;4.03;;;0.70;;
1651;SDS011;823;49.028;8.454;2023-01-04T15:54:15;0.90;;;0.53;;
1651;SDS011;823;49.028;8.454;2023-01-04T15:59:16;5.67;;;0.77;;
1651;SDS011;823;49.028;8.454;2023-01-04T16:04:17;1.83;;;0.73;;
1651;SDS011;823;49.028;8.454;2023-01-04T16:09:17;1.30;;;0.70;;
1651;SDS011;823;49.028;8.454;2023-01-04T16:14:18;1.52;;;0.70;;
1651;SDS011;823;49.028;8.454;2023-01-04T16:19:18;1.77;;;1.20;;
1651;SDS011;823;49.028;8.454;2023-01-04T16:24:18;1.67;;;0.90;;
1651;SDS011;823;49.028;8.454;2023-01-04T16:29:19;2.40;;;0.75;;
1651;SDS011;823;49.028;8.454;2023-01-04T16:34:19;1.00;;;0.60;;
1651;SDS011;823;49.028;8.454;2023-01-04T16:39:20;1.13;;;0.80;;
1651;SDS011;823;49.028;8.454;2023-01-04T16:44:20;1.20;;;0.70;;
1651;SDS011;823;49.028;8.454;2023-01-04T16:49:20;1.33;;;0.90;;
1651;SDS011;823;49.028;8.454;2023-01-04T16:54:21;2.88;;;0.80;;
1651;SDS011;823;49.028;8.454;2023-01-04T16:59:21;1.00;;;0.73;;
1651;SDS011;823;49.028;8.454;2023-01-04T17:04:21;0.90;;;0.50;;
1651;SDS011;823;49.028;8.454;2023-01-04T17:09:23;1.03;;;0.60;;
1651;SDS011;823;49.028;8.454;2023-01-04T17:14:23;2.03;;;0.90;;
1651;SDS011;823;49.028;8.454;2023-01-04T17:19:24;2.20;;;0.80;;
1651;SDS011;823;49.028;8.454;2023-01-04T17:24:25;0.90;;;0.70;;
1651;SDS011;823;49.028;8.454;2023-01-04T17:29:25;1.40;;;0.87;;
1651;SDS011;823;49.028;8.454;2023-01-04T17:34:25;1.75;;;0.88;;
1651;SDS011;823;49.028;8.454;2023-01-04T17:39:25;4.32;;;0.88;;
1651;SDS011;823;49.028;8.454;2023-01-04T17:44:29;1.30;;;0.93;;
1651;SDS011;823;49.028;8.454;2023-01-04T17:49:30;1.20;;;0.80;;
1651;SDS011;823;49.028;8.454;2023-01-04T17:54:30;4.10;;;0.70;;
1651;SDS011;823;49.028;8.454;2023-01-04T17:59:30;1.48;;;0.75;;
1651;SDS011;823;49.028;8.454;2023-01-04T18:04:31;1.67;;;0.63;;
1651;SDS011;823;49.028;8.454;2023-01-04T18:09:31;2.97;;;0.63;;
1651;SDS011;823;49.028;8.454;2023-01-04T18:14:31;1.63;;;0.90;;
1651;SDS011;823;49.028;8.454;2023-01-04T18:19:31;5.13;;;0.80;;
1651;SDS011;823;49.028;8.454;2023-01-04T18:24:32;0.93;;;0.77;;
1651;SDS011;823;49.028;8.454;2023-01-04T18:29:33;1.90;;;1.30;;
1651;SDS011;823;49.028;8.454;2023-01-04T18:34:33;2.10;;;0.90;;
1651;SDS011;823;49.028;8.454;2023-01-04T18:39:34;1.58;;;0.93;;
1651;SDS011;823;49.028;8.454;2023-01-04T18:44:34;1.53;;;0.50;;
1651;SDS011;823;49.028;8.454;2023-01-04T18:49:34;3.90;;;0.93;;
1651;SDS011;823;49.028;8.454;2023-01-04T18:54:35;2.17;;;1.10;;
1651;SDS011;823;49.028;8.454;2023-01-04T18:59:35;1.43;;;1.10;;
1651;SDS011;823;49.028;8.454;2023-01-04T19:04:36;1.50;;;0.90;;
1651;SDS011;823;49.028;8.454;2023-01-04T19:09:36;1.17;;;0.70;;
1651;SDS011;823;49.028;8.454;2023-01-04T19:14:36;5.43;;;1.10;;
1651;SDS011;823;49.028;8.454;2023-01-04T19:19:37;3.85;;;1.40;;
1651;SDS011;823;49.028;8.454;2023-01-04T19:24:37;1.17;;;0.83;;
1651;SDS011;823;49.028;8.454;2023-01-04T19:29:37;5.13;;;0.97;;
1651;SDS011;823;49.028;8.454;2023-01-04T19:34:38;1.23;;;0.70;;
1651;SDS011;823;49.028;8.454;2023-01-04T19:39:38;1.30;;;0.82;;
1651;SDS011;823;49.028;8.454;2023-01-04T19:44:38;3.33;;;1.27;;
1651;SDS011;823;49.028;8.454;2023-01-04T19:49:39;1.23;;;0.80;;
1651;SDS011;823;49.028;8.454;2023-01-04T19:54:39;1.30;;;0.90;;
1651;SDS011;823;49.028;8.454;2023-01-04T19:59:39;1.60;;;0.97;;
1651;SDS011;823;49.028;8.454;2023-01-04T20:04:40;2.47;;;0.67;;
1651;SDS011;823;49.028;8.454;2023-01-04T20:09:40;1.42;;;0.80;;
1651;SDS011;823;49.028;8.454;2023-01-04T20:14:40;1.60;;;1.13;;
1651;SDS011;823;49.028;8.454;2023-01-04T20:19:41;2.50;;;1.13;;
1651;SDS011;823;49.028;8.454;2023-01-04T20:24:41;5.28;;;0.82;;
1651;SDS011;823;49.028;8.454;2023-01-04T20:29:41;1.53;;;0.70;;
1651;SDS011;823;49.028;8.454;2023-01-04T20:34:42;3.55;;;0.90;;
1651;SDS011;823;49.028;8.454;2023-01-04T20:39:42;2.00;;;0.60;;
1651;SDS011;823;49.028;8.454;2023-01-04T20:44:42;1.45;;;0.73;;
1651;SDS011;823;49.028;8.454;2023-01-04T20:49:44;1.25;;;0.80;;
1651;SDS011;823;49.028;8.454;2023-01-04T20:54:46;1.20;;;0.73;;
1651;SDS011;823;49.028;8.454;2023-01-04T20:59:47;0.90;;;0.70;;
1651;SDS011;823;49.028;8.454;2023-01-04T21:04:48;2.22;;;1.02;;
1651;SDS011;823;49.028;8.454;2023-01-04T21:09:48;1.10;;;0.80;;
1651;SDS011;823;49.028;8.454;2023-01-04T21:14:48;1.27;;;0.63;;
1651;SDS011;823;49.028;8.454;2023-01-04T21:19:49;1.15;;;0.60;;
1651;SDS011;823;49.028;8.454;2023-01-04T21:24:49;1.50;;;0.70;;
1651;SDS011;823;49.028;8.454;2023-01-04T21:29:49;0.90;;;0.60;;
1651;SDS011;823;49.028;8.454;2023-01-04T21:34:51;1.43;;;0.70;;
1651;SDS011;823;49.028;8.454;2023-01-04T21:39:52;0.83;;;0.60;;
1651;SDS011;823;49.028;8.454;2023-01-04T21:44:52;1.60;;;0.80;;
1651;SDS011;823;49.028;8.454;2023-01-04T21:49:52;1.65;;;0.60;;
1651;SDS011;823;49.028;8.454;2023-01-04T21:54:52;2.75;;;1.40;;
1651;SDS011;823;49.028;8.454;2023-01-04T21:59:53;1.10;;;0.80;;
1651;SDS011;823;49.028;8.454;2023-01-04T22:04:53;1.02;;;0.75;;
1651;SDS011;823;49.028;8.454;2023-01-04T22:09:53;0.90;;;0.60;;
1651;SDS011;823;49.028;8.454;2023-01-04T22:14:54;1.00;;;0.52;;
1651;SDS011;823;49.028;8.454;2023-01-04T22:19:54;1.50;;;0.67;;
1651;SDS011;823;49.028;8.454;2023-01-04T22:24:54;1.10;;;0.75;;
1651;SDS011;823;49.028;8.454;2023-01-04T22:29:54;0.90;;;0.50;;
1651;SDS011;823;49.028;8.454;2023-01-04T22:34:55;1.30;;;0.60;;
1651;SDS011;823;49.028;8.454;2023-01-04T22:39:55;0.83;;;0.43;;
1651;SDS011;823;49.028;8.454;2023-01-04T22:44:55;2.00;;;0.90;;
1651;SDS011;823;49.028;8.454;2023-01-04T22:49:56;1.15;;;0.60;;
1651;SDS011;823;49.028;8.454;2023-01-04T22:54:56;1.63;;;0.70;;
1651;SDS011;823;49.028;8.454;2023-01-04T22:59:56;0.90;;;0.60;;
1651;SDS011;823;49.028;8.454;2023-01-04T23:04:57;1.07;;;0.60;;
1651;SDS011;823;49.028;8.454;2023-01-04T23:09:57;0.93;;;0.63;;
1651;SDS011;823;49.028;8.454;2023-01-04T23:14:57;0.90;;;0.60;;
1651;SDS011;823;49.028;8.454;2023-01-04T23:19:59;1.10;;;0.57;;
1651;SDS011;823;49.028;8.454;2023-01-04T23:24:59;0.90;;;0.60;;
1651;SDS011;823;49.028;8.454;2023-01-04T23:29:59;0.80;;;0.50;;
1651;SDS011;823;49.028;8.454;2023-01-04T23:35:00;1.73;;;0.90;;
1651;SDS011;823;49.028;8.454;2023-01-04T23:40:00;0.88;;;0.50;;
1651;SDS011;823;49.028;8.454;2023-01-04T23:45:00;1.73;;;0.60;;
1651;SDS011;823;49.028;8.454;2023-01-04T23:50:00;0.95;;;0.50;;
1651;SDS011;823;49.028;8.454;2023-01-04T23:55:01;2.87;;;0.60;;
